sensor_id;sensor_type;location;lat;lon;timestamp;pressure;altitude;pressure_sealevel;temperature;humidity
69318;BME280;56457;52.190;4.440;2022-11-03T00:00:05;101224.66;;;12.81;100.00
69318;BME280;56457;52.190;4.440;2022-11-03T00:01:05;101232.53;;;12.84;100.00
69318;BME280;56457;52.190;4.440;2022-11-03T00:02:06;101224.66;;;12.81;100.00
69318;BME280;56457;52.190;4.440;2022-11-03T00:03:06;101229.06;;;12.79;100.00
69318;BME280;56457;52.190;4.440;2022-11-03T00:04:07;101226.47;;;12.76;100.00
69318;BME280;56457;52.190;4.440;2022-11-03T00:05:07;101222.06;;;12.80;100.00
69318;BME280;56457;52.190;4.440;2022-11-03T00:06:31;101222.00;;;12.83;100.00
69318;BME280;56457;52.190;4.440;2022-11-03T00:07:31;101213.28;;;12.81;100.00
69318;BME280;56457;52.190;4.440;2022-11-03T00:08:32;101219.44;;;12.77;100.00
69318;BME280;56457;52.190;4.440;2022-11-03T00:09:32;101219.41;;;12.81;100.00
69318;BME280;56457;52.190;4.440;2022-11-03T00:10:33;101218.56;;;12.78;100.00
69318;BME280;56457;52.190;4.440;2022-11-03T00:11:34;101227.31;;;12.78;100.00
69318;BME280;56457;52.190;4.440;2022-11-03T00:12:34;101229.97;;;12.80;100.00
69318;BME280;56457;52.190;4.440;2022-11-03T00:13:35;101228.19;;;12.79;100.00
69318;BME280;56457;52.190;4.440;2022-11-03T00:14:35;101232.56;;;12.81;100.00
69318;BME280;56457;52.190;4.440;2022-11-03T00:15:36;101221.16;;;12.82;100.00
69318;BME280;56457;52.190;4.440;2022-11-03T00:16:36;101222.88;;;12.83;100.00
69318;BME280;56457;52.190;4.440;2022-11-03T00:17:37;101222.91;;;12.82;100.00
69318;BME280;56457;52.190;4.440;2022-11-03T00:18:37;101223.03;;;12.70;100.00
69318;BME280;56457;52.190;4.440;2022-11-03T00:19:38;101226.53;;;12.70;100.00
69318;BME280;56457;52.190;4.440;2022-11-03T00:20:38;101219.47;;;12.75;100.00
69318;BME280;56457;52.190;4.440;2022-11-03T00:21:38;101222.13;;;12.71;100.00
69318;BME280;56457;52.190;4.440;2022-11-03T00:22:39;101218.59;;;12.73;100.00
69318;BME280;56457;52.190;4.440;2022-11-03T00:23:40;101220.38;;;12.74;100.00
69318;BME280;56457;52.190;4.440;2022-11-03T00:24:40;101228.22;;;12.77;100.00
69318;BME280;56457;52.190;4.440;2022-11-03T00:25:40;101230.84;;;12.77;100.00
69318;BME280;56457;52.190;4.440;2022-11-03T00:26:40;101225.56;;;12.77;100.00
69318;BME280;56457;52.190;4.440;2022-11-03T00:27:41;101229.06;;;12.79;100.00
69318;BME280;56457;52.190;4.440;2022-11-03T00:28:42;101230.81;;;12.79;100.00
69318;BME280;56457;52.190;4.440;2022-11-03T00:29:43;101221.16;;;12.82;100.00
69318;BME280;56457;52.190;4.440;2022-11-03T00:30:43;101227.28;;;12.83;100.00
69318;BME280;56457;52.190;4.440;2022-11-03T00:31:43;101222.06;;;12.78;100.00
69318;BME280;56457;52.190;4.440;2022-11-03T00:32:44;101222.94;;;12.80;100.00
69318;BME280;56457;52.190;4.440;2022-11-03T00:33:44;101222.06;;;12.78;100.00
69318;BME280;56457;52.190;4.440;2022-11-03T00:34:44;101211.53;;;12.77;100.00
69318;BME280;56457;52.190;4.440;2022-11-03T00:35:44;101225.56;;;12.80;100.00
69318;BME280;56457;52.190;4.440;2022-11-03T00:36:45;101219.41;;;12.81;100.00
69318;BME280;56457;52.190;4.440;2022-11-03T00:37:45;101217.69;;;12.77;100.00
69318;BME280;56457;52.190;4.440;2022-11-03T00:38:45;101214.16;;;12.78;100.00
69318;BME280;56457;52.190;4.440;2022-11-03T00:39:46;101211.50;;;12.81;100.00
69318;BME280;56457;52.190;4.440;2022-11-03T00:40:51;101226.38;;;12.84;100.00
69318;BME280;56457;52.190;4.440;2022-11-03T00:41:51;101220.28;;;12.79;100.00
69318;BME280;56457;52.190;4.440;2022-11-03T00:42:52;101222.91;;;12.79;100.00
69318;BME280;56457;52.190;4.440;2022-11-03T00:43:53;101222.06;;;12.77;100.00
69318;BME280;56457;52.190;4.440;2022-11-03T00:44:53;101217.69;;;12.77;100.00
69318;BME280;56457;52.190;4.440;2022-11-03T00:45:54;101221.16;;;12.81;100.00
69318;BME280;56457;52.190;4.440;2022-11-03T00:46:55;101218.50;;;12.82;100.00
69318;BME280;56457;52.190;4.440;2022-11-03T00:47:55;101220.25;;;12.83;100.00
69318;BME280;56457;52.190;4.440;2022-11-03T00:49:14;101228.16;;;12.83;100.00
69318;BME280;56457;52.190;4.440;2022-11-03T00:50:14;101211.44;;;12.87;100.00
69318;BME280;56457;52.190;4.440;2022-11-03T00:51:27;101215.81;;;12.85;100.00
69318;BME280;56457;52.190;4.440;2022-11-03T00:52:29;101207.09;;;12.82;100.00
69318;BME280;56457;52.190;4.440;2022-11-03T00:53:30;101218.50;;;12.82;100.00
69318;BME280;56457;52.190;4.440;2022-11-03T00:54:31;101215.88;;;12.82;100.00
69318;BME280;56457;52.190;4.440;2022-11-03T00:55:31;101221.16;;;12.81;100.00
69318;BME280;56457;52.190;4.440;2022-11-03T00:56:32;101222.88;;;12.86;100.00
69318;BME280;56457;52.190;4.440;2022-11-03T00:57:33;101216.72;;;12.84;100.00
69318;BME280;56457;52.190;4.440;2022-11-03T00:58:33;101216.66;;;12.90;100.00
69318;BME280;56457;52.190;4.440;2022-11-03T00:59:34;101213.19;;;12.87;100.00
69318;BME280;56457;52.190;4.440;2022-11-03T01:00:34;101209.63;;;12.91;100.00
69318;BME280;56457;52.190;4.440;2022-11-03T01:01:38;101214.03;;;12.89;100.00
69318;BME280;56457;52.190;4.440;2022-11-03T01:02:41;101204.34;;;12.91;100.00
69318;BME280;56457;52.190;4.440;2022-11-03T01:03:43;101205.31;;;12.87;100.00
69318;BME280;56457;52.190;4.440;2022-11-03T01:05:07;101194.72;;;12.90;100.00
69318;BME280;56457;52.190;4.440;2022-11-03T01:06:26;101184.13;;;12.94;100.00
69318;BME280;56457;52.190;4.440;2022-11-03T01:07:44;101188.59;;;12.89;100.00
69318;BME280;56457;52.190;4.440;2022-11-03T01:08:45;101185.09;;;12.87;100.00
69318;BME280;56457;52.190;4.440;2022-11-03T01:09:45;101190.38;;;12.84;100.00
69318;BME280;56457;52.190;4.440;2022-11-03T01:10:46;101186.00;;;12.86;100.00
69318;BME280;56457;52.190;4.440;2022-11-03T01:12:09;101180.72;;;12.86;100.00
69318;BME280;56457;52.190;4.440;2022-11-03T01:13:09;101178.97;;;12.87;100.00
69318;BME280;56457;52.190;4.440;2022-11-03T01:14:13;101176.31;;;12.85;100.00
69318;BME280;56457;52.190;4.440;2022-11-03T01:15:13;101186.00;;;12.86;100.00
69318;BME280;56457;52.190;4.440;2022-11-03T01:16:13;101177.22;;;12.86;100.00
69318;BME280;56457;52.190;4.440;2022-11-03T01:17:15;101163.13;;;12.90;100.00
69318;BME280;56457;52.190;4.440;2022-11-03T01:18:16;101164.84;;;12.92;100.00
69318;BME280;56457;52.190;4.440;2022-11-03T01:19:16;101170.13;;;12.92;100.00
69318;BME280;56457;52.190;4.440;2022-11-03T01:20:17;101173.69;;;12.88;100.00
69318;BME280;56457;52.190;4.440;2022-11-03T01:21:17;101178.03;;;12.91;100.00
69318;BME280;56457;52.190;4.440;2022-11-03T01:22:18;101176.22;;;12.94;100.00
69318;BME280;56457;52.190;4.440;2022-11-03T01:23:19;101183.22;;;12.99;100.00
69318;BME280;56457;52.190;4.440;2022-11-03T01:24:19;101172.78;;;12.89;100.00
69318;BME280;56457;52.190;4.440;2022-11-03T01:25:20;101171.88;;;12.90;100.00
69318;BME280;56457;52.190;4.440;2022-11-03T01:26:20;101176.31;;;12.88;100.00
69318;BME280;56457;52.190;4.440;2022-11-03T01:27:20;101159.66;;;12.86;100.00
69318;BME280;56457;52.190;4.440;2022-11-03T01:28:22;101177.19;;;12.89;100.00
69318;BME280;56457;52.190;4.440;2022-11-03T01:29:22;101164.91;;;12.88;100.00
69318;BME280;56457;52.190;4.440;2022-11-03T01:30:22;101163.22;;;12.82;100.00
69318;BME280;56457;52.190;4.440;2022-11-03T01:31:23;101161.41;;;12.87;100.00
69318;BME280;56457;52.190;4.440;2022-11-03T01:32:24;101161.44;;;12.86;100.00
69318;BME280;56457;52.190;4.440;2022-11-03T01:33:24;101162.25;;;12.89;100.00
69318;BME280;56457;52.190;4.440;2022-11-03T01:34:24;101160.44;;;12.94;100.00
69318;BME280;56457;52.190;4.440;2022-11-03T01:35:25;101163.06;;;12.94;100.00
69318;BME280;56457;52.190;4.440;2022-11-03T01:36:25;101156.06;;;12.93;100.00
69318;BME280;56457;52.190;4.440;2022-11-03T01:37:25;101148.97;;;12.99;100.00
69318;BME280;56457;52.190;4.440;2022-11-03T01:38:26;101156.00;;;12.98;100.00
69318;BME280;56457;52.190;4.440;2022-11-03T01:39:26;101162.16;;;12.97;100.00
69318;BME280;56457;52.190;4.440;2022-11-03T01:40:26;101165.66;;;12.98;100.00
69318;BME280;56457;52.190;4.440;2022-11-03T01:41:27;101158.63;;;12.97;100.00
69318;BME280;56457;52.190;4.440;2022-11-03T01:42:27;101150.75;;;12.97;100.00
69318;BME280;56457;52.190;4.440;2022-11-03T01:43:27;101153.38;;;12.97;100.00
69318;BME280;56457;52.190;4.440;2022-11-03T01:44:31;101142.84;;;12.97;100.00
69318;BME280;56457;52.190;4.440;2022-11-03T01:45:32;101146.34;;;12.99;100.00
69318;BME280;56457;52.190;4.440;2022-11-03T01:46:43;101156.00;;;12.98;100.00
69318;BME280;56457;52.190;4.440;2022-11-03T01:47:45;101148.09;;;13.00;100.00
69318;BME280;56457;52.190;4.440;2022-11-03T01:48:48;101148.97;;;12.99;100.00
69318;BME280;56457;52.190;4.440;2022-11-03T01:50:50;101148.09;;;13.00;100.00
69318;BME280;56457;52.190;4.440;2022-11-03T01:51:53;101143.72;;;12.99;100.00
69318;BME280;56457;52.190;4.440;2022-11-03T01:52:57;101142.81;;;13.00;100.00
69318;BME280;56457;52.190;4.440;2022-11-03T01:53:58;101146.34;;;12.97;100.00
69318;BME280;56457;52.190;4.440;2022-11-03T01:55:00;101141.94;;;12.99;100.00
69318;BME280;56457;52.190;4.440;2022-11-03T01:56:01;101134.94;;;12.97;100.00
69318;BME280;56457;52.190;4.440;2022-11-03T01:57:02;101136.69;;;12.99;100.00
69318;BME280;56457;52.190;4.440;2022-11-03T01:58:18;101140.22;;;12.98;100.00
69318;BME280;56457;52.190;4.440;2022-11-03T01:59:21;101144.69;;;12.90;100.00
69318;BME280;56457;52.190;4.440;2022-11-03T02:00:21;101144.66;;;12.93;100.00
69318;BME280;56457;52.190;4.440;2022-11-03T02:01:22;101149.94;;;12.90;100.00
69318;BME280;56457;52.190;4.440;2022-11-03T02:02:22;101141.22;;;12.86;100.00
69318;BME280;56457;52.190;4.440;2022-11-03T02:03:22;101142.09;;;12.87;100.00
69318;BME280;56457;52.190;4.440;2022-11-03T02:04:25;101137.59;;;12.95;100.00
69318;BME280;56457;52.190;4.440;2022-11-03T02:05:28;101141.16;;;12.91;100.00
69318;BME280;56457;52.190;4.440;2022-11-03T02:06:29;101135.03;;;12.92;100.00
69318;BME280;56457;52.190;4.440;2022-11-03T02:07:37;101133.25;;;12.91;100.00
69318;BME280;56457;52.190;4.440;2022-11-03T02:08:56;101125.44;;;12.86;100.00
69318;BME280;56457;52.190;4.440;2022-11-03T02:09:58;101127.16;;;12.87;100.00
69318;BME280;56457;52.190;4.440;2022-11-03T02:10:58;101112.19;;;12.91;100.00
69318;BME280;56457;52.190;4.440;2022-11-03T02:11:58;101109.56;;;12.92;100.00
69318;BME280;56457;52.190;4.440;2022-11-03T02:13:18;101113.09;;;12.88;100.00
69318;BME280;56457;52.190;4.440;2022-11-03T02:14:19;101110.47;;;12.88;100.00
69318;BME280;56457;52.190;4.440;2022-11-03T02:15:19;101115.69;;;12.91;100.00
69318;BME280;56457;52.190;4.440;2022-11-03T02:16:21;101105.19;;;12.90;100.00
69318;BME280;56457;52.190;4.440;2022-11-03T02:17:23;101108.69;;;12.90;100.00
69318;BME280;56457;52.190;4.440;2022-11-03T02:18:25;101108.69;;;12.90;100.00
69318;BME280;56457;52.190;4.440;2022-11-03T02:20:30;101104.31;;;12.89;100.00
69318;BME280;56457;52.190;4.440;2022-11-03T02:21:34;101099.97;;;12.85;100.00
69318;BME280;56457;52.190;4.440;2022-11-03T02:22:46;101104.38;;;12.86;100.00
69318;BME280;56457;52.190;4.440;2022-11-03T02:24:02;101102.56;;;12.90;100.00
69318;BME280;56457;52.190;4.440;2022-11-03T02:26:25;101106.13;;;12.84;100.00
69318;BME280;56457;52.190;4.440;2022-11-03T02:27:25;101090.34;;;12.83;100.00
69318;BME280;56457;52.190;4.440;2022-11-03T02:28:27;101096.50;;;12.83;100.00
69318;BME280;56457;52.190;4.440;2022-11-03T02:29:28;101097.38;;;12.82;100.00
69318;BME280;56457;52.190;4.440;2022-11-03T02:30:30;101095.66;;;12.81;100.00
69318;BME280;56457;52.190;4.440;2022-11-03T02:31:49;101096.50;;;12.83;100.00
69318;BME280;56457;52.190;4.440;2022-11-03T02:32:58;101088.63;;;12.82;100.00
69318;BME280;56457;52.190;4.440;2022-11-03T02:34:04;101093.06;;;12.80;100.00
69318;BME280;56457;52.190;4.440;2022-11-03T02:35:28;101090.38;;;12.81;100.00
69318;BME280;56457;52.190;4.440;2022-11-03T02:37:35;101086.97;;;12.75;100.00
69318;BME280;56457;52.190;4.440;2022-11-03T02:38:41;101081.66;;;12.76;100.00
69318;BME280;56457;52.190;4.440;2022-11-03T02:39:48;101077.34;;;12.74;100.00
69318;BME280;56457;52.190;4.440;2022-11-03T02:40:52;101079.91;;;12.77;100.00
69318;BME280;56457;52.190;4.440;2022-11-03T02:41:54;101069.47;;;12.71;100.00
69318;BME280;56457;52.190;4.440;2022-11-03T02:42:55;101069.50;;;12.66;100.00
69318;BME280;56457;52.190;4.440;2022-11-03T02:43:56;101069.50;;;12.66;100.00
69318;BME280;56457;52.190;4.440;2022-11-03T02:44:57;101068.66;;;12.67;100.00
69318;BME280;56457;52.190;4.440;2022-11-03T02:45:58;101063.38;;;12.67;100.00
69318;BME280;56457;52.190;4.440;2022-11-03T02:47:00;101057.22;;;12.66;100.00
69318;BME280;56457;52.190;4.440;2022-11-03T02:48:02;101052.03;;;12.62;100.00
69318;BME280;56457;52.190;4.440;2022-11-03T02:49:04;101052.03;;;12.62;100.00
69318;BME280;56457;52.190;4.440;2022-11-03T02:50:05;101049.41;;;12.62;100.00
69318;BME280;56457;52.190;4.440;2022-11-03T02:51:06;101046.88;;;12.53;100.00
69318;BME280;56457;52.190;4.440;2022-11-03T02:52:31;101048.59;;;12.54;100.00
69318;BME280;56457;52.190;4.440;2022-11-03T02:53:26;101042.47;;;12.53;100.00
69318;BME280;56457;52.190;4.440;2022-11-03T02:54:29;101039.88;;;12.52;100.00
69318;BME280;56457;52.190;4.440;2022-11-03T02:55:37;101038.97;;;12.53;100.00
69318;BME280;56457;52.190;4.440;2022-11-03T02:56:42;101030.16;;;12.57;100.00
69318;BME280;56457;52.190;4.440;2022-11-03T02:57:48;101037.25;;;12.52;100.00
69318;BME280;56457;52.190;4.440;2022-11-03T02:58:52;101036.34;;;12.53;100.00
69318;BME280;56457;52.190;4.440;2022-11-03T02:59:57;101028.44;;;12.56;100.00
69318;BME280;56457;52.190;4.440;2022-11-03T03:01:10;101034.59;;;12.53;100.00
69318;BME280;56457;52.190;4.440;2022-11-03T03:02:17;101029.28;;;12.56;100.00
69318;BME280;56457;52.190;4.440;2022-11-03T03:04:31;101030.19;;;12.54;100.00
69318;BME280;56457;52.190;4.440;2022-11-03T03:05:34;101018.78;;;12.55;100.00
69318;BME280;56457;52.190;4.440;2022-11-03T03:06:38;101027.50;;;12.58;100.00
69318;BME280;56457;52.190;4.440;2022-11-03T03:07:43;101031.03;;;12.57;100.00
69318;BME280;56457;52.190;4.440;2022-11-03T03:08:46;101030.13;;;12.58;100.00
69318;BME280;56457;52.190;4.440;2022-11-03T03:09:56;101030.19;;;12.54;100.00
69318;BME280;56457;52.190;4.440;2022-11-03T03:10:58;101034.59;;;12.55;100.00
69318;BME280;56457;52.190;4.440;2022-11-03T03:11:59;101040.75;;;12.52;100.00
69318;BME280;56457;52.190;4.440;2022-11-03T03:13:01;101044.22;;;12.53;100.00
69318;BME280;56457;52.190;4.440;2022-11-03T03:15:06;101034.59;;;12.55;100.00
69318;BME280;56457;52.190;4.440;2022-11-03T03:16:10;101030.19;;;12.54;100.00
69318;BME280;56457;52.190;4.440;2022-11-03T03:17:13;101040.78;;;12.49;100.00
69318;BME280;56457;52.190;4.440;2022-11-03T03:18:18;101031.19;;;12.45;100.00
69318;BME280;56457;52.190;4.440;2022-11-03T03:20:56;101015.38;;;12.47;100.00
69318;BME280;56457;52.190;4.440;2022-11-03T03:21:59;101012.78;;;12.42;100.00
69318;BME280;56457;52.190;4.440;2022-11-03T03:23:03;101019.84;;;12.40;100.00
69318;BME280;56457;52.190;4.440;2022-11-03T03:24:08;101009.28;;;12.43;100.00
69318;BME280;56457;52.190;4.440;2022-11-03T03:25:13;101018.03;;;12.42;100.00
69318;BME280;56457;52.190;4.440;2022-11-03T03:27:25;101019.75;;;12.48;100.00
69318;BME280;56457;52.190;4.440;2022-11-03T03:28:41;101017.09;;;12.48;100.00
69318;BME280;56457;52.190;4.440;2022-11-03T03:29:44;101010.16;;;12.42;100.00
69318;BME280;56457;52.190;4.440;2022-11-03T03:30:46;101011.91;;;12.45;100.00
69318;BME280;56457;52.190;4.440;2022-11-03T03:31:50;101011.88;;;12.46;100.00
69318;BME280;56457;52.190;4.440;2022-11-03T03:32:52;101009.22;;;12.49;100.00
69318;BME280;56457;52.190;4.440;2022-11-03T03:33:53;100996.84;;;12.56;100.00
69318;BME280;56457;52.190;4.440;2022-11-03T03:34:55;101001.22;;;12.57;100.00
69318;BME280;56457;52.190;4.440;2022-11-03T03:35:58;100999.44;;;12.57;100.00
69318;BME280;56457;52.190;4.440;2022-11-03T03:37:00;101003.81;;;12.58;100.00
69318;BME280;56457;52.190;4.440;2022-11-03T03:38:04;101000.28;;;12.61;100.00
69318;BME280;56457;52.190;4.440;2022-11-03T03:39:05;100998.53;;;12.61;100.00
69318;BME280;56457;52.190;4.440;2022-11-03T03:40:08;100998.47;;;12.64;100.00
69318;BME280;56457;52.190;4.440;2022-11-03T03:41:11;100996.63;;;12.71;100.00
69318;BME280;56457;52.190;4.440;2022-11-03T03:42:20;100994.03;;;12.68;100.00
69318;BME280;56457;52.190;4.440;2022-11-03T03:43:23;100991.41;;;12.66;100.00
69318;BME280;56457;52.190;4.440;2022-11-03T03:44:24;100995.84;;;12.64;100.00
69318;BME280;56457;52.190;4.440;2022-11-03T03:45:25;100987.84;;;12.71;100.00
69318;BME280;56457;52.190;4.440;2022-11-03T03:46:30;100991.31;;;12.73;100.00
69318;BME280;56457;52.190;4.440;2022-11-03T03:47:33;100992.25;;;12.70;100.00
69318;BME280;56457;52.190;4.440;2022-11-03T03:48:34;100985.16;;;12.75;100.00
69318;BME280;56457;52.190;4.440;2022-11-03T03:49:34;100990.44;;;12.75;100.00
69318;BME280;56457;52.190;4.440;2022-11-03T03:50:35;100980.72;;;12.77;100.00
69318;BME280;56457;52.190;4.440;2022-11-03T03:51:37;100989.50;;;12.78;100.00
69318;BME280;56457;52.190;4.440;2022-11-03T03:52:37;100986.84;;;12.79;100.00
69318;BME280;56457;52.190;4.440;2022-11-03T03:53:37;100995.66;;;12.77;100.00
69318;BME280;56457;52.190;4.440;2022-11-03T03:54:38;100984.28;;;12.75;100.00
69318;BME280;56457;52.190;4.440;2022-11-03T03:55:39;100987.75;;;12.77;100.00
69318;BME280;56457;52.190;4.440;2022-11-03T03:56:58;100995.66;;;12.77;100.00
69318;BME280;56457;52.190;4.440;2022-11-03T03:58:00;101000.09;;;12.73;100.00
69318;BME280;56457;52.190;4.440;2022-11-03T03:59:01;100994.78;;;12.76;100.00
69318;BME280;56457;52.190;4.440;2022-11-03T04:00:01;100999.22;;;12.74;100.00
69318;BME280;56457;52.190;4.440;2022-11-03T04:01:01;101000.00;;;12.79;100.00
69318;BME280;56457;52.190;4.440;2022-11-03T04:02:02;100995.63;;;12.80;100.00
69318;BME280;56457;52.190;4.440;2022-11-03T04:03:02;100992.97;;;12.81;100.00
69318;BME280;56457;52.190;4.440;2022-11-03T04:04:02;100983.25;;;12.85;100.00
69318;BME280;56457;52.190;4.440;2022-11-03T04:05:03;100988.59;;;12.80;100.00
69318;BME280;56457;52.190;4.440;2022-11-03T04:06:03;100985.09;;;12.80;100.00
69318;BME280;56457;52.190;4.440;2022-11-03T04:07:03;100987.72;;;12.81;100.00
69318;BME280;56457;52.190;4.440;2022-11-03T04:08:36;100987.72;;;12.81;100.00
69318;BME280;56457;52.190;4.440;2022-11-03T04:09:36;100981.47;;;12.85;100.00
69318;BME280;56457;52.190;4.440;2022-11-03T04:10:37;100984.97;;;12.87;100.00
69318;BME280;56457;52.190;4.440;2022-11-03T04:11:37;100981.47;;;12.85;100.00
69318;BME280;56457;52.190;4.440;2022-11-03T04:12:55;100985.84;;;12.88;100.00
69318;BME280;56457;52.190;4.440;2022-11-03T04:14:14;100981.47;;;12.87;100.00
69318;BME280;56457;52.190;4.440;2022-11-03T04:15:33;100974.44;;;12.87;100.00
69318;BME280;56457;52.190;4.440;2022-11-03T04:16:53;100980.63;;;12.85;100.00
69318;BME280;56457;52.190;4.440;2022-11-03T04:18:12;100987.72;;;12.81;100.00
69318;BME280;56457;52.190;4.440;2022-11-03T04:19:30;100981.53;;;12.82;100.00
69318;BME280;56457;52.190;4.440;2022-11-03T04:20:49;100976.25;;;12.84;100.00
69318;BME280;56457;52.190;4.440;2022-11-03T04:22:08;100982.41;;;12.83;100.00
69318;BME280;56457;52.190;4.440;2022-11-03T04:23:18;100970.16;;;12.79;100.00
69318;BME280;56457;52.190;4.440;2022-11-03T04:24:18;100973.66;;;12.82;100.00
69318;BME280;56457;52.190;4.440;2022-11-03T04:25:18;100976.28;;;12.82;100.00
69318;BME280;56457;52.190;4.440;2022-11-03T04:26:19;100964.09;;;12.75;100.00
69318;BME280;56457;52.190;4.440;2022-11-03T04:27:35;100979.00;;;12.76;100.00
69318;BME280;56457;52.190;4.440;2022-11-03T04:28:36;100978.09;;;12.77;100.00
69318;BME280;56457;52.190;4.440;2022-11-03T04:29:36;100967.56;;;12.77;100.00
69318;BME280;56457;52.190;4.440;2022-11-03T04:30:36;100959.69;;;12.77;100.00
69318;BME280;56457;52.190;4.440;2022-11-03T04:31:36;100966.69;;;12.80;100.00
69318;BME280;56457;52.190;4.440;2022-11-03T04:32:37;100956.19;;;12.77;100.00
69318;BME280;56457;52.190;4.440;2022-11-03T04:33:38;100955.31;;;12.76;100.00
69318;BME280;56457;52.190;4.440;2022-11-03T04:34:39;100961.50;;;12.72;100.00
69318;BME280;56457;52.190;4.440;2022-11-03T04:35:40;100951.00;;;12.71;100.00
69318;BME280;56457;52.190;4.440;2022-11-03T04:36:43;100951.91;;;12.70;100.00
69318;BME280;56457;52.190;4.440;2022-11-03T04:37:44;100946.69;;;12.65;100.00
69318;BME280;56457;52.190;4.440;2022-11-03T04:38:45;100951.06;;;12.68;100.00
69318;BME280;56457;52.190;4.440;2022-11-03T04:39:45;100949.31;;;12.65;100.00
69318;BME280;56457;52.190;4.440;2022-11-03T04:40:46;100945.78;;;12.66;100.00
69318;BME280;56457;52.190;4.440;2022-11-03T04:41:47;100944.00;;;12.70;100.00
69318;BME280;56457;52.190;4.440;2022-11-03T04:42:47;100946.63;;;12.70;100.00
69318;BME280;56457;52.190;4.440;2022-11-03T04:43:48;100942.22;;;12.70;100.00
69318;BME280;56457;52.190;4.440;2022-11-03T04:44:48;100936.97;;;12.70;100.00
69318;BME280;56457;52.190;4.440;2022-11-03T04:45:49;100941.34;;;12.71;100.00
69318;BME280;56457;52.190;4.440;2022-11-03T04:46:49;100944.00;;;12.70;100.00
69318;BME280;56457;52.190;4.440;2022-11-03T04:47:52;100942.22;;;12.72;100.00
69318;BME280;56457;52.190;4.440;2022-11-03T04:48:53;100945.72;;;12.72;100.00
69318;BME280;56457;52.190;4.440;2022-11-03T04:49:54;100942.22;;;12.72;100.00
69318;BME280;56457;52.190;4.440;2022-11-03T04:50:55;100937.78;;;12.75;100.00
69318;BME280;56457;52.190;4.440;2022-11-03T04:51:57;100939.59;;;12.70;100.00
69318;BME280;56457;52.190;4.440;2022-11-03T04:52:57;100933.47;;;12.70;100.00
69318;BME280;56457;52.190;4.440;2022-11-03T04:53:58;100932.63;;;12.66;100.00
69318;BME280;56457;52.190;4.440;2022-11-03T04:55:00;100935.28;;;12.64;100.00
69318;BME280;56457;52.190;4.440;2022-11-03T04:56:00;100931.66;;;12.75;100.00
69318;BME280;56457;52.190;4.440;2022-11-03T04:57:04;100932.53;;;12.74;100.00
69318;BME280;56457;52.190;4.440;2022-11-03T04:58:26;100930.81;;;12.71;100.00
69318;BME280;56457;52.190;4.440;2022-11-03T04:59:27;100931.66;;;12.73;100.00
69318;BME280;56457;52.190;4.440;2022-11-03T05:00:28;100929.00;;;12.73;100.00
69318;BME280;56457;52.190;4.440;2022-11-03T05:01:28;100929.06;;;12.70;100.00
69318;BME280;56457;52.190;4.440;2022-11-03T05:02:28;100917.44;;;12.86;100.00
69318;BME280;56457;52.190;4.440;2022-11-03T05:03:30;100908.75;;;12.78;100.00
69318;BME280;56457;52.190;4.440;2022-11-03T05:04:31;100916.72;;;12.75;100.00
69318;BME280;56457;52.190;4.440;2022-11-03T05:05:31;100914.97;;;12.73;100.00
69318;BME280;56457;52.190;4.440;2022-11-03T05:06:32;100914.97;;;12.73;100.00
69318;BME280;56457;52.190;4.440;2022-11-03T05:07:33;100907.94;;;12.73;100.00
69318;BME280;56457;52.190;4.440;2022-11-03T05:08:34;100896.59;;;12.71;100.00
69318;BME280;56457;52.190;4.440;2022-11-03T05:09:35;100912.41;;;12.70;100.00
69318;BME280;56457;52.190;4.440;2022-11-03T05:10:35;100906.19;;;12.75;100.00
69318;BME280;56457;52.190;4.440;2022-11-03T05:11:39;100902.59;;;12.79;100.00
69318;BME280;56457;52.190;4.440;2022-11-03T05:12:40;100904.31;;;12.82;100.00
69318;BME280;56457;52.190;4.440;2022-11-03T05:13:40;100897.31;;;12.79;100.00
69318;BME280;56457;52.190;4.440;2022-11-03T05:14:41;100902.56;;;12.82;100.00
69318;BME280;56457;52.190;4.440;2022-11-03T05:15:41;100899.03;;;12.83;100.00
69318;BME280;56457;52.190;4.440;2022-11-03T05:16:42;100901.72;;;12.79;100.00
69318;BME280;56457;52.190;4.440;2022-11-03T05:17:43;100892.91;;;12.83;100.00
69318;BME280;56457;52.190;4.440;2022-11-03T05:18:43;100899.97;;;12.81;100.00
69318;BME280;56457;52.190;4.440;2022-11-03T05:19:45;100892.91;;;12.83;100.00
69318;BME280;56457;52.190;4.440;2022-11-03T05:20:58;100886.69;;;12.85;100.00
69318;BME280;56457;52.190;4.440;2022-11-03T05:22:00;100885.78;;;12.88;100.00
69318;BME280;56457;52.190;4.440;2022-11-03T05:23:02;100882.41;;;12.81;100.00
69318;BME280;56457;52.190;4.440;2022-11-03T05:24:04;100885.78;;;12.88;100.00
69318;BME280;56457;52.190;4.440;2022-11-03T05:26:42;100885.81;;;12.85;100.00
69318;BME280;56457;52.190;4.440;2022-11-03T05:27:42;100877.88;;;12.89;100.00
69318;BME280;56457;52.190;4.440;2022-11-03T05:28:47;100870.00;;;12.88;100.00
69318;BME280;56457;52.190;4.440;2022-11-03T05:29:48;100870.88;;;12.88;100.00
69318;BME280;56457;52.190;4.440;2022-11-03T05:30:49;100876.16;;;12.87;100.00
69318;BME280;56457;52.190;4.440;2022-11-03T05:31:51;100870.94;;;12.84;100.00
69318;BME280;56457;52.190;4.440;2022-11-03T05:32:52;100871.81;;;12.86;100.00
69318;BME280;56457;52.190;4.440;2022-11-03T05:33:53;100871.81;;;12.84;100.00
69318;BME280;56457;52.190;4.440;2022-11-03T05:34:55;100869.94;;;12.91;100.00
69318;BME280;56457;52.190;4.440;2022-11-03T05:35:56;100865.63;;;12.85;100.00
69318;BME280;56457;52.190;4.440;2022-11-03T05:37:10;100868.16;;;12.91;100.00